createdAt,value
2022-08-02T00:00:10.697Z,93592.19
2022-08-02T00:02:37.632Z,93607.38
2022-08-02T00:05:05.131Z,93609.78
2022-08-02T00:07:34.270Z,93600.34
2022-08-02T00:10:05.510Z,93606.16
2022-08-02T00:12:32.256Z,93591.78
2022-08-02T00:14:59.093Z,93600.63
2022-08-02T00:17:25.739Z,93605.28
2022-08-02T00:19:52.393Z,93607.53
2022-08-02T00:22:19.028Z,93602.34
2022-08-02T00:24:45.817Z,93587.00
2022-08-02T00:27:12.539Z,93584.16
2022-08-02T00:29:42.601Z,93598.75
2022-08-02T00:32:19.248Z,93592.72
2022-08-02T00:34:45.956Z,93594.19
2022-08-02T00:37:12.596Z,93598.44
2022-08-02T00:39:39.575Z,93583.69
2022-08-02T00:42:06.440Z,93592.59
2022-08-02T00:44:33.088Z,93598.34
2022-08-02T00:47:00.031Z,93604.25
2022-08-02T00:49:26.821Z,93605.44
2022-08-02T00:51:53.771Z,93603.03
2022-08-02T00:54:21.447Z,93581.28
2022-08-02T00:56:49.814Z,93592.59
2022-08-02T00:59:18.147Z,93578.22
2022-08-02T01:01:56.602Z,93584.81
2022-08-02T01:04:30.600Z,93581.47
2022-08-02T01:07:12.158Z,93581.00
2022-08-02T01:09:45.154Z,93569.22
2022-08-02T01:12:13.490Z,93577.25
2022-08-02T01:14:43.324Z,93575.81
2022-08-02T01:17:24.932Z,93573.56
2022-08-02T01:20:12.069Z,93589.69
2022-08-02T01:23:01.566Z,93581.66
2022-08-02T01:25:59.249Z,93587.66
2022-08-02T01:28:40.412Z,93597.03
2022-08-02T01:31:20.730Z,93594.38
2022-08-02T01:34:03.023Z,93578.38
2022-08-02T01:36:36.242Z,93578.44
2022-08-02T01:39:05.295Z,93582.81
2022-08-02T01:41:33.474Z,93577.22
2022-08-02T01:44:02.995Z,93562.44
2022-08-02T01:46:32.956Z,93585.69
2022-08-02T01:49:07.392Z,93588.09
2022-08-02T01:51:58.362Z,93599.69
2022-08-02T01:54:29.424Z,93584.31
2022-08-02T01:56:57.063Z,93591.06
2022-08-02T01:59:25.132Z,93590.44
2022-08-02T02:01:55.969Z,93595.03
2022-08-02T02:04:23.283Z,93589.91
2022-08-02T02:06:51.319Z,93584.09
2022-08-02T02:09:20.149Z,93574.47
2022-08-02T02:12:12.171Z,93574.25
2022-08-02T02:14:37.145Z,93574.25
2022-08-02T02:17:05.445Z,93584.59
2022-08-02T02:19:35.991Z,93576.88
2022-08-02T02:22:03.245Z,93563.50
2022-08-02T02:24:30.421Z,93575.03
2022-08-02T02:27:01.856Z,93570.13
2022-08-02T02:29:30.647Z,93572.59
2022-08-02T02:32:00.237Z,93567.56
2022-08-02T02:34:33.538Z,93563.59
2022-08-02T02:37:04.211Z,93564.78
2022-08-02T02:39:32.665Z,93552.34
2022-08-02T02:42:03.656Z,93544.81
2022-08-02T02:44:33.057Z,93556.25
2022-08-02T02:47:01.425Z,93546.97
2022-08-02T02:49:31.705Z,93560.97
2022-08-02T02:51:59.159Z,93569.66
2022-08-02T02:54:32.658Z,93550.91
2022-08-02T02:57:04.412Z,93566.38
2022-08-02T02:59:34.073Z,93565.09
2022-08-02T03:02:01.828Z,93557.31
2022-08-02T03:04:36.003Z,93568.56
2022-08-02T03:07:17.869Z,93567.72
2022-08-02T03:09:44.635Z,93570.41
2022-08-02T03:12:14.772Z,93564.50
2022-08-02T03:14:49.417Z,93560.31
2022-08-02T03:17:16.558Z,93560.41
2022-08-02T03:19:43.238Z,93546.88
2022-08-02T03:22:10.336Z,93560.28
2022-08-02T03:24:38.360Z,93560.88
2022-08-02T03:27:05.054Z,93560.91
2022-08-02T03:29:34.666Z,93559.88
2022-08-02T03:32:01.981Z,93562.91
2022-08-02T03:34:29.333Z,93574.25
2022-08-02T03:36:58.127Z,93559.03
2022-08-02T03:39:26.586Z,93550.88
2022-08-02T03:41:54.991Z,93566.94
2022-08-02T03:44:23.098Z,93563.31
2022-08-02T03:46:50.656Z,93572.13
2022-08-02T03:49:18.547Z,93563.28
2022-08-02T03:51:46.485Z,93559.06
2022-08-02T03:54:13.891Z,93563.81
2022-08-02T03:56:40.997Z,93565.63
2022-08-02T03:59:09.217Z,93557.38
2022-08-02T04:01:35.908Z,93549.72
2022-08-02T04:04:02.601Z,93564.25
2022-08-02T04:06:29.286Z,93551.09
2022-08-02T04:08:56.024Z,93560.38
2022-08-02T04:11:31.997Z,93556.13
2022-08-02T04:14:01.642Z,93556.94
2022-08-02T04:16:50.167Z,93557.47
2022-08-02T04:19:40.739Z,93550.22
2022-08-02T04:22:14.473Z,93564.31
2022-08-02T04:24:45.243Z,93547.56
2022-08-02T04:27:49.289Z,93569.50
2022-08-02T04:30:01.275Z,93555.94
2022-08-02T04:32:28.276Z,93571.28
2022-08-02T04:35:18.598Z,93573.03
2022-08-02T04:38:09.366Z,93582.03
2022-08-02T04:40:31.004Z,93576.28
2022-08-02T04:42:57.794Z,93577.41
2022-08-02T04:45:25.645Z,93569.25
2022-08-02T04:48:02.211Z,93573.78
2022-08-02T04:50:30.926Z,93573.59
2022-08-02T04:52:57.627Z,93578.94
2022-08-02T04:55:28.376Z,93575.78
2022-08-02T04:57:55.483Z,93575.78
2022-08-02T05:00:22.562Z,93576.59
2022-08-02T05:02:49.744Z,93580.56
2022-08-02T05:05:16.597Z,93588.38
2022-08-02T05:07:43.216Z,93572.94
2022-08-02T05:10:10.644Z,93564.31
2022-08-02T05:12:40.545Z,93579.88
2022-08-02T05:15:09.227Z,93563.94
2022-08-02T05:17:39.956Z,93575.47
2022-08-02T05:20:15.213Z,93538.59
2022-08-02T05:22:42.329Z,93573.97
2022-08-02T05:25:09.596Z,93563.88
2022-08-02T05:27:36.325Z,93560.84
2022-08-02T05:30:04.593Z,93569.16
2022-08-02T05:32:31.245Z,93566.38
2022-08-02T05:34:57.936Z,93567.34
2022-08-02T05:37:24.842Z,93561.16
2022-08-02T05:39:56.008Z,93556.69
2022-08-02T05:42:23.613Z,93553.31
2022-08-02T05:44:50.620Z,93553.84
2022-08-02T05:47:17.292Z,93558.72
2022-08-02T05:49:44.054Z,93551.63
2022-08-02T05:52:19.048Z,93550.94
2022-08-02T05:55:09.994Z,93525.47
2022-08-02T05:58:02.321Z,93560.22
2022-08-02T06:00:32.285Z,93560.13
2022-08-02T06:03:17.256Z,93567.53
2022-08-02T06:05:57.948Z,93556.63
2022-08-02T06:08:32.361Z,93558.84
2022-08-02T06:11:01.797Z,93560.31
2022-08-02T06:13:28.878Z,93546.25
2022-08-02T06:15:59.401Z,93558.31
2022-08-02T06:18:28.847Z,93550.44
2022-08-02T06:20:58.609Z,93554.88
2022-08-02T06:23:26.687Z,93545.25
2022-08-02T06:25:54.068Z,93542.34
2022-08-02T06:28:21.000Z,93524.91
2022-08-02T06:30:48.021Z,93544.72
2022-08-02T06:33:15.301Z,93539.91
2022-08-02T06:35:44.656Z,93539.03
2022-08-02T06:38:19.197Z,93545.63
2022-08-02T06:40:48.194Z,93532.19
2022-08-02T06:43:26.498Z,93528.88
2022-08-02T06:45:53.252Z,93523.44
2022-08-02T06:48:19.972Z,93536.38
2022-08-02T06:50:46.978Z,93527.59
2022-08-02T06:53:13.960Z,93531.41
2022-08-02T06:55:43.223Z,93535.38
2022-08-02T06:58:11.802Z,93515.00
2022-08-02T07:00:38.796Z,93534.53
2022-08-02T07:03:06.032Z,93535.19
2022-08-02T07:05:32.776Z,93514.19
2022-08-02T07:07:59.516Z,93534.34
2022-08-02T07:10:26.209Z,93526.06
2022-08-02T07:12:52.853Z,93525.13
2022-08-02T07:15:19.582Z,93522.09
2022-08-02T07:17:46.529Z,93515.38
2022-08-02T07:20:14.945Z,93514.16
2022-08-02T07:22:41.749Z,93516.91
2022-08-02T07:25:09.167Z,93519.13
2022-08-02T07:27:35.861Z,93504.94
2022-08-02T07:30:03.681Z,93504.94
2022-08-02T07:32:32.074Z,93515.50
2022-08-02T07:34:59.804Z,93517.66
2022-08-02T07:37:52.949Z,93520.91
2022-08-02T07:40:22.084Z,93496.09
2022-08-02T07:42:59.281Z,93516.66
2022-08-02T07:45:30.133Z,93520.94
2022-08-02T07:47:56.980Z,93515.03
2022-08-02T07:50:24.241Z,93517.13
2022-08-02T07:52:57.649Z,93521.50
2022-08-02T07:55:25.462Z,93520.44
2022-08-02T07:58:06.308Z,93513.41
2022-08-02T08:00:38.040Z,93519.97
2022-08-02T08:03:04.760Z,93518.31
2022-08-02T08:05:31.386Z,93513.69
2022-08-02T08:07:58.185Z,93515.09
2022-08-02T08:10:24.921Z,93515.66
2022-08-02T08:12:51.620Z,93512.41
2022-08-02T08:15:18.345Z,93515.69
2022-08-02T08:17:44.942Z,93513.22
2022-08-02T08:20:15.754Z,93507.50
2022-08-02T08:22:43.110Z,93508.03
2022-08-02T08:25:09.977Z,93512.91
2022-08-02T08:27:36.692Z,93502.06
2022-08-02T08:30:04.381Z,93504.50
2022-08-02T08:32:31.007Z,93497.00
2022-08-02T08:34:58.560Z,93506.34
2022-08-02T08:37:25.361Z,93501.47
2022-08-02T08:39:57.787Z,93512.81
2022-08-02T08:42:30.496Z,93493.66
2022-08-02T08:44:58.866Z,93496.38
2022-08-02T08:47:40.106Z,93504.59
2022-08-02T08:50:18.066Z,93488.94
2022-08-02T08:52:53.811Z,93516.50
2022-08-02T08:55:23.315Z,93511.41
2022-08-02T08:57:50.853Z,93507.25
2022-08-02T09:00:17.758Z,93505.88
2022-08-02T09:02:44.580Z,93495.16
2022-08-02T09:05:13.684Z,93510.47
2022-08-02T09:07:42.813Z,93507.59
2022-08-02T09:10:44.878Z,93512.75
2022-08-02T09:13:45.499Z,93509.47
2022-08-02T09:16:14.321Z,93506.94
2022-08-02T09:18:46.630Z,93506.81
2022-08-02T09:21:16.219Z,93508.50
2022-08-02T09:23:47.562Z,93508.19
2022-08-02T09:26:16.629Z,93501.53
2022-08-02T09:28:46.693Z,93508.09
2022-08-02T09:31:15.322Z,93503.25
2022-08-02T09:33:44.361Z,93498.13
2022-08-02T09:36:16.209Z,93496.44
2022-08-02T09:39:02.569Z,93491.47
2022-08-02T09:41:32.318Z,93468.19
2022-08-02T09:44:05.612Z,93492.72
2022-08-02T09:46:37.882Z,93496.53
2022-08-02T09:49:10.474Z,93483.84
2022-08-02T09:51:40.363Z,93478.84
2022-08-02T09:54:09.704Z,93479.53
2022-08-02T09:56:45.245Z,93488.88
2022-08-02T09:59:13.810Z,93489.53
2022-08-02T10:01:46.992Z,93489.44
2022-08-02T10:04:24.518Z,93486.41
2022-08-02T10:06:53.128Z,93483.25
2022-08-02T10:09:21.040Z,93487.03
2022-08-02T10:11:48.813Z,93475.97
2022-08-02T10:14:16.189Z,93490.69
2022-08-02T10:16:44.056Z,93470.44
2022-08-02T10:19:11.081Z,93479.59
2022-08-02T10:21:55.845Z,93475.66
2022-08-02T10:24:25.540Z,93485.00
2022-08-02T10:26:53.624Z,93479.75
2022-08-02T10:29:27.440Z,93474.78
2022-08-02T10:32:16.365Z,93470.72
2022-08-02T10:34:56.471Z,93464.16
2022-08-02T10:37:29.733Z,93455.31
2022-08-02T10:39:57.908Z,93457.97
2022-08-02T10:42:46.993Z,93457.28
2022-08-02T10:45:16.581Z,93449.34
2022-08-02T10:48:07.389Z,93455.34
2022-08-02T10:50:52.843Z,93449.19
2022-08-02T10:53:26.826Z,93446.03
2022-08-02T10:55:55.321Z,93425.72
2022-08-02T10:58:26.407Z,93428.94
2022-08-02T11:00:57.712Z,93446.63
2022-08-02T11:03:41.931Z,93436.50
2022-08-02T11:06:25.760Z,93442.72
2022-08-02T11:09:32.920Z,93431.44
2022-08-02T11:12:09.895Z,93438.06
2022-08-02T11:14:38.669Z,93428.19
2022-08-02T11:17:09.660Z,93439.66
2022-08-02T11:20:11.186Z,93439.47
2022-08-02T11:22:39.791Z,93439.94
2022-08-02T11:25:21.809Z,93429.63
2022-08-02T11:27:55.813Z,93427.91
2022-08-02T11:30:26.867Z,93408.22
2022-08-02T11:32:58.790Z,93427.50
2022-08-02T11:35:36.418Z,93401.06
2022-08-02T11:38:17.663Z,93415.69
2022-08-02T11:40:45.698Z,93419.22
2022-08-02T11:43:20.510Z,93418.63
2022-08-02T11:45:48.200Z,93422.13
2022-08-02T11:48:14.884Z,93423.34
2022-08-02T11:50:42.854Z,93418.50
2022-08-02T11:53:14.360Z,93405.13
2022-08-02T11:55:41.116Z,93416.91
2022-08-02T11:58:09.993Z,93414.66
2022-08-02T12:00:36.736Z,93415.75
2022-08-02T12:03:03.720Z,93415.00
2022-08-02T12:06:04.852Z,93421.59
2022-08-02T12:08:22.190Z,93416.00
2022-08-02T12:10:52.125Z,93422.84
2022-08-02T12:13:19.014Z,93413.47
2022-08-02T12:15:46.910Z,93412.41
2022-08-02T12:18:36.641Z,93419.81
2022-08-02T12:21:04.700Z,93414.50
2022-08-02T12:23:31.614Z,93411.34
2022-08-02T12:26:09.541Z,93420.84
2022-08-02T12:28:43.100Z,93418.97
2022-08-02T12:31:14.252Z,93414.09
2022-08-02T12:33:51.616Z,93422.44
2022-08-02T12:36:23.993Z,93414.75
2022-08-02T12:39:01.455Z,93416.91
2022-08-02T12:41:31.323Z,93419.94
2022-08-02T12:44:00.562Z,93409.88
2022-08-02T12:46:27.718Z,93410.66
2022-08-02T12:49:17.001Z,93411.53
2022-08-02T12:51:56.740Z,93404.56
2022-08-02T12:54:38.828Z,93410.56
2022-08-02T12:57:13.357Z,93398.22
2022-08-02T12:59:42.095Z,93390.31
2022-08-02T13:02:12.817Z,93394.53
2022-08-02T13:04:40.755Z,93394.19
2022-08-02T13:07:08.995Z,93390.28
2022-08-02T13:09:40.578Z,93394.22
2022-08-02T13:12:08.611Z,93396.53
2022-08-02T13:14:42.075Z,93399.38
2022-08-02T13:17:09.770Z,93377.84
2022-08-02T13:19:37.342Z,93394.53
2022-08-02T13:22:04.370Z,93386.34
2022-08-02T13:24:37.802Z,93383.59
2022-08-02T13:27:08.127Z,93385.53
2022-08-02T13:29:39.727Z,93396.75
2022-08-02T13:32:06.345Z,93388.25
2022-08-02T13:34:33.142Z,93381.81
2022-08-02T13:37:00.200Z,93385.56
2022-08-02T13:39:28.123Z,93383.47
2022-08-02T13:41:55.688Z,93391.75
2022-08-02T13:44:22.647Z,93380.06
2022-08-02T13:46:49.359Z,93389.63
2022-08-02T13:49:19.308Z,93380.97
2022-08-02T13:51:48.684Z,93382.13
2022-08-02T13:54:16.260Z,93379.00
2022-08-02T13:56:43.269Z,93379.63
2022-08-02T13:59:54.131Z,93373.53
2022-08-02T14:01:58.375Z,93384.97
2022-08-02T14:04:25.883Z,93383.56
2022-08-02T14:06:52.764Z,93383.34
2022-08-02T14:09:19.533Z,93378.59
2022-08-02T14:11:47.127Z,93373.06
2022-08-02T14:14:16.503Z,93382.59
2022-08-02T14:16:47.336Z,93378.25
2022-08-02T14:19:16.135Z,93378.06
2022-08-02T14:21:46.369Z,93379.22
2022-08-02T14:24:14.387Z,93373.03
2022-08-02T14:26:41.146Z,93374.06
2022-08-02T14:29:07.793Z,93374.66
2022-08-02T14:31:34.489Z,93378.78
2022-08-02T14:34:01.273Z,93377.28
2022-08-02T14:36:28.314Z,93383.91
2022-08-02T14:38:55.981Z,93379.66
2022-08-02T14:41:23.515Z,93377.44
2022-08-02T14:44:05.547Z,93379.69
2022-08-02T14:46:33.497Z,93370.25
2022-08-02T14:49:04.152Z,93373.97
2022-08-02T14:51:31.797Z,93373.72
2022-08-02T14:54:02.512Z,93362.38
2022-08-02T14:56:30.413Z,93376.44
2022-08-02T14:58:57.541Z,93358.91
2022-08-02T15:01:26.071Z,93367.88
2022-08-02T15:03:53.493Z,93373.94
2022-08-02T15:06:20.489Z,93356.91
2022-08-02T15:08:47.152Z,93364.63
2022-08-02T15:11:14.151Z,93357.44
2022-08-02T15:13:41.185Z,93359.06
2022-08-02T15:16:09.857Z,93351.88
2022-08-02T15:18:36.678Z,93359.97
2022-08-02T15:21:07.963Z,93362.03
2022-08-02T15:23:50.266Z,93359.63
2022-08-02T15:26:16.964Z,93363.09
2022-08-02T15:28:43.607Z,93369.63
2022-08-02T15:31:11.226Z,93369.19
2022-08-02T15:33:50.049Z,93354.94
2022-08-02T15:36:17.048Z,93358.63
2022-08-02T15:38:43.804Z,93367.00
2022-08-02T15:41:10.543Z,93364.72
2022-08-02T15:44:00.305Z,93373.63
2022-08-02T15:46:25.680Z,93365.63
2022-08-02T15:48:59.959Z,93378.31
2022-08-02T15:51:27.012Z,93368.59
2022-08-02T15:53:53.823Z,93364.94
2022-08-02T15:56:23.972Z,93365.25
2022-08-02T15:58:51.917Z,93359.56
2022-08-02T16:01:24.369Z,93367.34
2022-08-02T16:03:51.185Z,93353.56
2022-08-02T16:06:17.951Z,93352.81
2022-08-02T16:08:53.796Z,93346.56
2022-08-02T16:11:22.612Z,93360.28
2022-08-02T16:13:55.206Z,93358.22
2022-08-02T16:16:24.200Z,93346.88
2022-08-02T16:18:50.961Z,93356.19
2022-08-02T16:21:19.217Z,93345.47
2022-08-02T16:23:59.033Z,93345.97
2022-08-02T16:26:34.332Z,93356.69
2022-08-02T16:29:02.379Z,93352.31
2022-08-02T16:31:29.898Z,93355.88
2022-08-02T16:33:57.316Z,93356.09
2022-08-02T16:36:25.638Z,93356.25
2022-08-02T16:38:53.816Z,93358.56
2022-08-02T16:41:21.440Z,93367.09
2022-08-02T16:43:48.871Z,93362.19
2022-08-02T16:46:15.635Z,93364.22
2022-08-02T16:48:51.364Z,93366.13
2022-08-02T16:51:19.224Z,93365.72
2022-08-02T16:53:59.916Z,93360.03
2022-08-02T16:56:30.685Z,93359.44
2022-08-02T16:58:59.687Z,93355.13
2022-08-02T17:02:01.773Z,93359.91
2022-08-02T17:04:15.750Z,93350.94
2022-08-02T17:06:47.564Z,93355.75
2022-08-02T17:10:04.027Z,93345.91
2022-08-02T17:12:09.956Z,93361.28
2022-08-02T17:14:41.908Z,93350.38
2022-08-02T17:17:21.759Z,93353.97
2022-08-02T17:19:48.633Z,93362.84
2022-08-02T17:22:16.131Z,93354.94
2022-08-02T17:24:44.679Z,93360.72
2022-08-02T17:27:17.093Z,93359.38
2022-08-02T17:29:43.809Z,93365.19
2022-08-02T17:32:14.662Z,93363.78
2022-08-02T17:34:48.922Z,93370.91
2022-08-02T17:37:26.344Z,93362.00
2022-08-02T17:39:53.092Z,93361.03
2022-08-02T17:42:24.102Z,93361.44
2022-08-02T17:45:00.986Z,93354.53
2022-08-02T17:47:42.388Z,93371.31
2022-08-02T17:50:12.331Z,93365.56
2022-08-02T17:52:52.356Z,93374.28
2022-08-02T17:55:20.557Z,93373.41
2022-08-02T17:57:56.088Z,93379.38
2022-08-02T18:00:26.662Z,93383.72
2022-08-02T18:02:55.394Z,93377.47
2022-08-02T18:08:11.195Z,93382.97
2022-08-02T18:10:41.000Z,93385.19
2022-08-02T18:13:07.673Z,93385.03
2022-08-02T18:15:34.665Z,93388.63
2022-08-02T18:18:01.782Z,93383.41
2022-08-02T18:20:28.497Z,93383.06
2022-08-02T18:22:58.404Z,93379.94
2022-08-02T18:25:36.802Z,93388.19
2022-08-02T18:28:10.886Z,93396.19
2022-08-02T18:30:37.524Z,93385.88
2022-08-02T18:33:58.883Z,93387.09
2022-08-02T18:35:55.499Z,93392.69
2022-08-02T18:38:27.905Z,93393.94
2022-08-02T18:40:55.236Z,93395.44
2022-08-02T18:43:25.657Z,93398.91
2022-08-02T18:46:05.502Z,93392.91
2022-08-02T18:48:38.283Z,93395.81
2022-08-02T18:51:06.783Z,93395.69
2022-08-02T18:53:41.507Z,93397.03
2022-08-02T18:56:20.236Z,93401.63
2022-08-02T18:58:55.861Z,93401.41
2022-08-02T19:01:33.696Z,93394.94
2022-08-02T19:04:04.554Z,93396.75
2022-08-02T19:06:31.938Z,93403.06
2022-08-02T19:09:05.389Z,93390.91
2022-08-02T19:11:35.034Z,93393.59
2022-08-02T19:14:02.331Z,93408.66
2022-08-02T19:16:36.860Z,93406.50
2022-08-02T19:19:07.605Z,93393.81
2022-08-02T19:22:15.876Z,93408.66
2022-08-02T19:24:21.685Z,93403.78
2022-08-02T19:26:51.871Z,93410.00
2022-08-02T19:29:25.194Z,93415.06
2022-08-02T19:32:41.888Z,93424.53
2022-08-02T19:34:55.773Z,93413.72
2022-08-02T19:37:22.688Z,93414.44
2022-08-02T19:39:50.403Z,93422.13
2022-08-02T19:42:18.521Z,93413.44
2022-08-02T19:44:46.082Z,93415.91
2022-08-02T19:47:18.974Z,93420.19
2022-08-02T19:49:49.066Z,93418.28
2022-08-02T19:52:21.399Z,93412.28
2022-08-02T19:54:55.433Z,93424.13
2022-08-02T19:57:23.015Z,93412.84
2022-08-02T19:59:52.586Z,93427.34
2022-08-02T20:02:20.891Z,93432.63
2022-08-02T20:04:50.117Z,93437.13
2022-08-02T20:07:50.626Z,93439.63
2022-08-02T20:10:04.590Z,93421.88
2022-08-02T20:12:37.041Z,93437.22
2022-08-02T20:15:07.725Z,93433.84
2022-08-02T20:17:47.262Z,93429.34
2022-08-02T20:20:14.640Z,93430.41
2022-08-02T20:23:00.008Z,93413.16
2022-08-02T20:25:29.103Z,93432.25
2022-08-02T20:27:55.840Z,93433.78
2022-08-02T20:30:25.564Z,93435.06
2022-08-02T20:32:58.847Z,93427.88
2022-08-02T20:35:29.401Z,93425.03
2022-08-02T20:38:01.592Z,93428.03
2022-08-02T20:40:30.459Z,93425.19
2022-08-02T20:42:57.812Z,93421.44
2022-08-02T20:45:27.051Z,93416.88
2022-08-02T20:47:54.937Z,93430.13
2022-08-02T20:50:44.218Z,93425.81
2022-08-02T20:53:23.823Z,93419.72
2022-08-02T20:55:54.210Z,93418.16
2022-08-02T20:58:27.168Z,93433.84
2022-08-02T21:01:01.209Z,93436.78
2022-08-02T21:03:39.531Z,93434.47
2022-08-02T21:06:09.313Z,93440.06
2022-08-02T21:08:36.151Z,93431.63
2022-08-02T21:11:09.128Z,93442.41
2022-08-02T21:13:47.371Z,93424.53
2022-08-02T21:16:23.326Z,93429.03
2022-08-02T21:18:55.659Z,93436.94
2022-08-02T21:21:27.201Z,93434.25
2022-08-02T21:23:55.057Z,93441.44
2022-08-02T21:26:27.832Z,93432.91
2022-08-02T21:28:58.292Z,93421.16
2022-08-02T21:31:30.159Z,93435.06
2022-08-02T21:34:00.323Z,93433.41
2022-08-02T21:36:33.225Z,93431.91
2022-08-02T21:39:08.910Z,93427.34
2022-08-02T21:41:46.969Z,93436.44
2022-08-02T21:44:19.186Z,93439.00
2022-08-02T21:46:49.164Z,93438.88
2022-08-02T21:49:18.509Z,93437.41
2022-08-02T21:51:49.663Z,93424.22
2022-08-02T21:54:20.423Z,93442.47
2022-08-02T21:56:50.102Z,93438.25
2022-08-02T21:59:25.652Z,93422.38
2022-08-02T22:01:56.802Z,93433.22
2022-08-02T22:04:25.410Z,93422.56
2022-08-02T22:06:53.672Z,93422.78
2022-08-02T22:09:44.013Z,93449.47
2022-08-02T22:12:10.229Z,93439.16
2022-08-02T22:14:39.618Z,93450.94
2022-08-02T22:17:08.728Z,93439.84
2022-08-02T22:19:36.607Z,93445.19
2022-08-02T22:22:03.497Z,93443.63
2022-08-02T22:24:30.575Z,93427.94
2022-08-02T22:26:57.737Z,93440.69
2022-08-02T22:29:25.207Z,93438.84
2022-08-02T22:31:52.457Z,93446.19
2022-08-02T22:37:07.529Z,93442.41
2022-08-02T22:39:34.421Z,93447.28
2022-08-02T22:42:06.189Z,93454.31
2022-08-02T22:44:33.773Z,93444.66
2022-08-02T22:47:03.954Z,93432.25
2022-08-02T22:52:21.682Z,93444.53
2022-08-02T22:54:48.803Z,93446.66
2022-08-02T22:57:17.584Z,93439.72
2022-08-02T22:58:43.166Z,93379.84
2022-08-02T22:59:09.878Z,93448.84
2022-08-02T22:59:57.753Z,93445.72
2022-08-02T23:02:24.984Z,93443.13
2022-08-02T23:04:52.100Z,93442.50
2022-08-02T23:07:18.812Z,93450.06
2022-08-02T23:09:46.121Z,93451.72
2022-08-02T23:12:15.205Z,93453.00
2022-08-02T23:14:42.010Z,93444.03
2022-08-02T23:17:27.236Z,93454.88
2022-08-02T23:19:54.275Z,93435.34
2022-08-02T23:22:30.093Z,93447.03
2022-08-02T23:25:00.348Z,93449.44
2022-08-02T23:27:27.113Z,93453.78
2022-08-02T23:29:53.824Z,93454.94
2022-08-02T23:32:22.940Z,93449.16
2022-08-02T23:34:56.704Z,93454.31
2022-08-02T23:37:24.343Z,93449.94
2022-08-02T23:39:51.175Z,93458.66
2022-08-02T23:42:18.122Z,93451.19
2022-08-02T23:44:44.929Z,93449.91
2022-08-02T23:47:11.583Z,93450.47
2022-08-02T23:49:38.301Z,93447.56
2022-08-02T23:52:05.120Z,93450.63
2022-08-02T23:54:31.722Z,93450.00
2022-08-02T23:56:59.160Z,93448.09
2022-08-02T23:59:25.847Z,93444.25
